sensor_id;sensor_type;location;lat;lon;timestamp;temperature;humidity
8860;DHT22;4466;50.948;4.832;2023-10-13T00:01:56;17.70;99.90
8860;DHT22;4466;50.948;4.832;2023-10-13T00:04:27;17.70;99.90
8860;DHT22;4466;50.948;4.832;2023-10-13T00:06:55;17.70;99.90
8860;DHT22;4466;50.948;4.832;2023-10-13T00:09:24;17.60;99.90
8860;DHT22;4466;50.948;4.832;2023-10-13T00:11:54;17.60;99.90
8860;DHT22;4466;50.948;4.832;2023-10-13T00:14:20;17.60;99.90
8860;DHT22;4466;50.948;4.832;2023-10-13T00:16:57;17.60;99.90
8860;DHT22;4466;50.948;4.832;2023-10-13T00:19:33;17.60;99.90
8860;DHT22;4466;50.948;4.832;2023-10-13T00:22:19;17.60;99.90
8860;DHT22;4466;50.948;4.832;2023-10-13T00:24:45;17.50;99.90
8860;DHT22;4466;50.948;4.832;2023-10-13T00:27:19;17.50;99.90
8860;DHT22;4466;50.948;4.832;2023-10-13T00:30:06;17.50;99.90
8860;DHT22;4466;50.948;4.832;2023-10-13T00:32:49;17.50;99.90
8860;DHT22;4466;50.948;4.832;2023-10-13T00:35:29;17.50;99.90
8860;DHT22;4466;50.948;4.832;2023-10-13T00:38:01;17.50;99.90
8860;DHT22;4466;50.948;4.832;2023-10-13T00:40:38;17.50;99.90
8860;DHT22;4466;50.948;4.832;2023-10-13T00:43:04;17.50;99.90
8860;DHT22;4466;50.948;4.832;2023-10-13T00:45:50;17.50;99.90
8860;DHT22;4466;50.948;4.832;2023-10-13T00:48:32;17.50;99.90
8860;DHT22;4466;50.948;4.832;2023-10-13T00:53:29;17.50;99.90
8860;DHT22;4466;50.948;4.832;2023-10-13T00:55:55;17.50;99.90
8860;DHT22;4466;50.948;4.832;2023-10-13T00:58:21;17.50;99.90
8860;DHT22;4466;50.948;4.832;2023-10-13T01:00:51;17.50;99.90
8860;DHT22;4466;50.948;4.832;2023-10-13T01:03:46;17.60;99.90
8860;DHT22;4466;50.948;4.832;2023-10-13T01:06:17;17.60;99.90
8860;DHT22;4466;50.948;4.832;2023-10-13T01:08:45;17.60;99.90
8860;DHT22;4466;50.948;4.832;2023-10-13T01:11:17;17.60;99.90
8860;DHT22;4466;50.948;4.832;2023-10-13T01:13:42;17.60;99.90
8860;DHT22;4466;50.948;4.832;2023-10-13T01:16:08;17.60;99.90
8860;DHT22;4466;50.948;4.832;2023-10-13T01:18:34;17.60;99.90
8860;DHT22;4466;50.948;4.832;2023-10-13T01:21:14;17.60;99.90
8860;DHT22;4466;50.948;4.832;2023-10-13T01:23:43;17.50;99.90
8860;DHT22;4466;50.948;4.832;2023-10-13T01:26:10;17.60;99.90
8860;DHT22;4466;50.948;4.832;2023-10-13T01:28:38;17.60;99.90
8860;DHT22;4466;50.948;4.832;2023-10-13T01:31:11;17.70;99.90
8860;DHT22;4466;50.948;4.832;2023-10-13T01:33:50;17.60;99.90
8860;DHT22;4466;50.948;4.832;2023-10-13T01:36:22;17.60;99.90
8860;DHT22;4466;50.948;4.832;2023-10-13T01:38:48;17.60;99.90
8860;DHT22;4466;50.948;4.832;2023-10-13T01:41:15;17.60;99.90
8860;DHT22;4466;50.948;4.832;2023-10-13T01:43:41;17.60;99.90
8860;DHT22;4466;50.948;4.832;2023-10-13T01:46:08;17.60;99.90
8860;DHT22;4466;50.948;4.832;2023-10-13T01:48:35;17.60;99.90
8860;DHT22;4466;50.948;4.832;2023-10-13T01:51:04;17.60;99.90
8860;DHT22;4466;50.948;4.832;2023-10-13T01:53:31;17.60;99.90
8860;DHT22;4466;50.948;4.832;2023-10-13T01:55:57;17.60;99.90
8860;DHT22;4466;50.948;4.832;2023-10-13T01:58:23;17.60;99.90
8860;DHT22;4466;50.948;4.832;2023-10-13T02:00:52;17.60;99.90
8860;DHT22;4466;50.948;4.832;2023-10-13T02:03:17;17.60;99.90
8860;DHT22;4466;50.948;4.832;2023-10-13T02:05:44;17.60;99.90
8860;DHT22;4466;50.948;4.832;2023-10-13T02:08:17;17.60;99.90
8860;DHT22;4466;50.948;4.832;2023-10-13T02:10:55;17.60;99.90
8860;DHT22;4466;50.948;4.832;2023-10-13T02:13:22;17.60;99.90
8860;DHT22;4466;50.948;4.832;2023-10-13T02:15:49;17.60;99.90
8860;DHT22;4466;50.948;4.832;2023-10-13T02:18:19;17.70;99.90
8860;DHT22;4466;50.948;4.832;2023-10-13T02:20:56;17.70;99.90
8860;DHT22;4466;50.948;4.832;2023-10-13T02:23:25;17.70;99.90
8860;DHT22;4466;50.948;4.832;2023-10-13T02:25:54;17.70;99.90
8860;DHT22;4466;50.948;4.832;2023-10-13T02:28:29;17.80;99.90
8860;DHT22;4466;50.948;4.832;2023-10-13T02:31:04;17.80;99.90
8860;DHT22;4466;50.948;4.832;2023-10-13T02:33:30;17.70;99.90
8860;DHT22;4466;50.948;4.832;2023-10-13T02:35:57;17.70;99.90
8860;DHT22;4466;50.948;4.832;2023-10-13T02:38:23;17.70;99.90
8860;DHT22;4466;50.948;4.832;2023-10-13T02:41:09;17.70;99.90
8860;DHT22;4466;50.948;4.832;2023-10-13T02:43:35;17.70;99.90
8860;DHT22;4466;50.948;4.832;2023-10-13T02:46:02;17.80;99.90
8860;DHT22;4466;50.948;4.832;2023-10-13T02:48:28;17.80;99.90
8860;DHT22;4466;50.948;4.832;2023-10-13T02:51:17;17.80;99.90
8860;DHT22;4466;50.948;4.832;2023-10-13T02:54:01;17.80;99.90
8860;DHT22;4466;50.948;4.832;2023-10-13T02:56:36;17.80;99.90
8860;DHT22;4466;50.948;4.832;2023-10-13T02:59:02;17.80;99.90
8860;DHT22;4466;50.948;4.832;2023-10-13T03:01:35;17.80;99.90
8860;DHT22;4466;50.948;4.832;2023-10-13T03:04:04;17.80;99.90
8860;DHT22;4466;50.948;4.832;2023-10-13T03:06:34;17.80;99.90
8860;DHT22;4466;50.948;4.832;2023-10-13T03:09:04;17.90;99.90
8860;DHT22;4466;50.948;4.832;2023-10-13T03:11:41;17.90;99.90
8860;DHT22;4466;50.948;4.832;2023-10-13T03:14:14;17.90;99.90
8860;DHT22;4466;50.948;4.832;2023-10-13T03:16:53;17.90;99.90
8860;DHT22;4466;50.948;4.832;2023-10-13T03:19:19;17.90;99.90
8860;DHT22;4466;50.948;4.832;2023-10-13T03:21:46;17.90;99.90
8860;DHT22;4466;50.948;4.832;2023-10-13T03:24:21;18.00;99.90
8860;DHT22;4466;50.948;4.832;2023-10-13T03:27:00;18.00;99.90
8860;DHT22;4466;50.948;4.832;2023-10-13T03:29:35;18.00;99.90
8860;DHT22;4466;50.948;4.832;2023-10-13T03:32:01;18.00;99.90
8860;DHT22;4466;50.948;4.832;2023-10-13T03:34:40;18.00;99.90
8860;DHT22;4466;50.948;4.832;2023-10-13T03:37:15;18.00;99.90
8860;DHT22;4466;50.948;4.832;2023-10-13T03:39:47;18.00;99.90
8860;DHT22;4466;50.948;4.832;2023-10-13T03:42:13;18.10;99.90
8860;DHT22;4466;50.948;4.832;2023-10-13T03:44:45;18.10;99.90
8860;DHT22;4466;50.948;4.832;2023-10-13T03:47:12;18.20;99.90
8860;DHT22;4466;50.948;4.832;2023-10-13T03:49:45;18.20;99.90
8860;DHT22;4466;50.948;4.832;2023-10-13T03:52:11;18.20;99.90
8860;DHT22;4466;50.948;4.832;2023-10-13T03:54:40;18.20;99.90
8860;DHT22;4466;50.948;4.832;2023-10-13T03:57:07;18.20;99.90
8860;DHT22;4466;50.948;4.832;2023-10-13T03:59:37;18.20;99.90
8860;DHT22;4466;50.948;4.832;2023-10-13T04:02:03;18.20;99.90
8860;DHT22;4466;50.948;4.832;2023-10-13T04:04:37;18.20;99.90
8860;DHT22;4466;50.948;4.832;2023-10-13T04:07:15;18.20;99.90
8860;DHT22;4466;50.948;4.832;2023-10-13T04:10:04;18.20;99.90
8860;DHT22;4466;50.948;4.832;2023-10-13T04:13:04;18.20;99.90
8860;DHT22;4466;50.948;4.832;2023-10-13T04:15:56;18.20;99.90
8860;DHT22;4466;50.948;4.832;2023-10-13T04:18:40;18.30;99.90
8860;DHT22;4466;50.948;4.832;2023-10-13T04:21:23;18.30;99.90
8860;DHT22;4466;50.948;4.832;2023-10-13T04:24:08;18.30;99.90
8860;DHT22;4466;50.948;4.832;2023-10-13T04:26:43;18.30;99.90
8860;DHT22;4466;50.948;4.832;2023-10-13T04:29:28;18.30;99.90
8860;DHT22;4466;50.948;4.832;2023-10-13T04:32:12;18.30;99.90
8860;DHT22;4466;50.948;4.832;2023-10-13T04:34:44;18.40;99.90
8860;DHT22;4466;50.948;4.832;2023-10-13T04:37:16;18.40;99.90
8860;DHT22;4466;50.948;4.832;2023-10-13T04:39:57;18.40;99.90
8860;DHT22;4466;50.948;4.832;2023-10-13T04:42:35;18.40;99.90
8860;DHT22;4466;50.948;4.832;2023-10-13T04:45:20;18.50;99.90
8860;DHT22;4466;50.948;4.832;2023-10-13T04:47:58;18.40;99.90
8860;DHT22;4466;50.948;4.832;2023-10-13T04:50:58;18.50;99.90
8860;DHT22;4466;50.948;4.832;2023-10-13T04:53:43;18.50;99.90
8860;DHT22;4466;50.948;4.832;2023-10-13T04:56:36;18.40;99.90
8860;DHT22;4466;50.948;4.832;2023-10-13T04:59:08;18.40;99.90
8860;DHT22;4466;50.948;4.832;2023-10-13T05:01:52;18.30;99.90
8860;DHT22;4466;50.948;4.832;2023-10-13T05:04:36;18.30;99.90
8860;DHT22;4466;50.948;4.832;2023-10-13T05:07:24;18.30;99.90
8860;DHT22;4466;50.948;4.832;2023-10-13T05:10:08;18.20;99.90
8860;DHT22;4466;50.948;4.832;2023-10-13T05:12:52;18.20;99.90
8860;DHT22;4466;50.948;4.832;2023-10-13T05:15:46;18.20;99.90
8860;DHT22;4466;50.948;4.832;2023-10-13T05:18:30;18.20;99.90
8860;DHT22;4466;50.948;4.832;2023-10-13T05:21:15;18.10;99.90
8860;DHT22;4466;50.948;4.832;2023-10-13T05:23:59;18.20;99.90
8860;DHT22;4466;50.948;4.832;2023-10-13T05:26:43;18.10;99.90
8860;DHT22;4466;50.948;4.832;2023-10-13T05:32:02;18.10;99.90
8860;DHT22;4466;50.948;4.832;2023-10-13T05:34:46;18.00;99.90
8860;DHT22;4466;50.948;4.832;2023-10-13T05:37:30;18.00;99.90
8860;DHT22;4466;50.948;4.832;2023-10-13T05:40:15;18.00;99.90
8860;DHT22;4466;50.948;4.832;2023-10-13T05:42:58;18.00;99.90
8860;DHT22;4466;50.948;4.832;2023-10-13T05:45:43;17.90;99.90
8860;DHT22;4466;50.948;4.832;2023-10-13T05:51:02;17.90;99.90
8860;DHT22;4466;50.948;4.832;2023-10-13T05:53:46;17.90;99.90
8860;DHT22;4466;50.948;4.832;2023-10-13T05:56:30;17.90;99.90
8860;DHT22;4466;50.948;4.832;2023-10-13T05:59:16;17.90;99.90
8860;DHT22;4466;50.948;4.832;2023-10-13T06:02:00;17.90;99.90
8860;DHT22;4466;50.948;4.832;2023-10-13T06:04:44;17.90;99.90
8860;DHT22;4466;50.948;4.832;2023-10-13T06:07:29;17.80;99.90
8860;DHT22;4466;50.948;4.832;2023-10-13T06:10:13;17.80;99.90
8860;DHT22;4466;50.948;4.832;2023-10-13T06:12:57;17.80;99.90
8860;DHT22;4466;50.948;4.832;2023-10-13T06:15:41;17.80;99.90
8860;DHT22;4466;50.948;4.832;2023-10-13T06:18:25;17.80;99.90
8860;DHT22;4466;50.948;4.832;2023-10-13T06:21:09;17.90;99.90
8860;DHT22;4466;50.948;4.832;2023-10-13T06:23:55;17.90;99.90
8860;DHT22;4466;50.948;4.832;2023-10-13T06:26:39;17.90;99.90
8860;DHT22;4466;50.948;4.832;2023-10-13T06:29:23;17.90;99.90
8860;DHT22;4466;50.948;4.832;2023-10-13T06:31:50;18.00;99.90
8860;DHT22;4466;50.948;4.832;2023-10-13T06:34:16;18.00;99.90
8860;DHT22;4466;50.948;4.832;2023-10-13T06:36:45;18.00;99.90
8860;DHT22;4466;50.948;4.832;2023-10-13T06:39:12;18.10;99.90
8860;DHT22;4466;50.948;4.832;2023-10-13T06:41:57;18.10;99.90
8860;DHT22;4466;50.948;4.832;2023-10-13T06:46:58;18.20;99.90
8860;DHT22;4466;50.948;4.832;2023-10-13T06:49:25;18.30;99.90
8860;DHT22;4466;50.948;4.832;2023-10-13T06:51:50;18.40;99.90
8860;DHT22;4466;50.948;4.832;2023-10-13T06:54:16;18.40;99.90
8860;DHT22;4466;50.948;4.832;2023-10-13T06:56:46;18.50;99.90
8860;DHT22;4466;50.948;4.832;2023-10-13T06:59:12;18.50;99.90
8860;DHT22;4466;50.948;4.832;2023-10-13T07:01:40;18.60;99.90
8860;DHT22;4466;50.948;4.832;2023-10-13T07:04:09;18.70;99.90
8860;DHT22;4466;50.948;4.832;2023-10-13T07:06:43;18.70;99.90
8860;DHT22;4466;50.948;4.832;2023-10-13T07:09:16;18.80;99.90
8860;DHT22;4466;50.948;4.832;2023-10-13T07:12:03;18.80;99.90
8860;DHT22;4466;50.948;4.832;2023-10-13T07:14:33;18.90;99.90
8860;DHT22;4466;50.948;4.832;2023-10-13T07:17:05;19.00;99.90
8860;DHT22;4466;50.948;4.832;2023-10-13T07:19:33;19.00;99.90
8860;DHT22;4466;50.948;4.832;2023-10-13T07:22:01;19.10;99.90
8860;DHT22;4466;50.948;4.832;2023-10-13T07:24:47;19.10;99.90
8860;DHT22;4466;50.948;4.832;2023-10-13T07:27:20;19.20;99.90
8860;DHT22;4466;50.948;4.832;2023-10-13T07:29:53;19.20;99.90
8860;DHT22;4466;50.948;4.832;2023-10-13T07:32:30;19.20;99.90
8860;DHT22;4466;50.948;4.832;2023-10-13T07:34:59;19.20;99.90
8860;DHT22;4466;50.948;4.832;2023-10-13T07:37:34;19.30;99.90
8860;DHT22;4466;50.948;4.832;2023-10-13T07:40:00;19.40;99.90
8860;DHT22;4466;50.948;4.832;2023-10-13T07:42:26;19.50;99.90
8860;DHT22;4466;50.948;4.832;2023-10-13T07:45:05;19.50;99.90
8860;DHT22;4466;50.948;4.832;2023-10-13T07:47:37;19.60;99.90
8860;DHT22;4466;50.948;4.832;2023-10-13T07:50:13;19.70;99.90
8860;DHT22;4466;50.948;4.832;2023-10-13T07:52:39;19.70;99.90
8860;DHT22;4466;50.948;4.832;2023-10-13T07:55:23;19.70;99.90
8860;DHT22;4466;50.948;4.832;2023-10-13T07:57:49;19.70;99.90
8860;DHT22;4466;50.948;4.832;2023-10-13T08:00:22;19.70;99.90
8860;DHT22;4466;50.948;4.832;2023-10-13T08:05:39;19.80;99.90
8860;DHT22;4466;50.948;4.832;2023-10-13T08:08:24;19.90;99.90
8860;DHT22;4466;50.948;4.832;2023-10-13T08:11:01;19.90;99.90
8860;DHT22;4466;50.948;4.832;2023-10-13T08:13:35;20.10;99.90
8860;DHT22;4466;50.948;4.832;2023-10-13T08:16:02;20.10;99.90
8860;DHT22;4466;50.948;4.832;2023-10-13T08:18:35;20.20;99.90
8860;DHT22;4466;50.948;4.832;2023-10-13T08:21:04;20.30;99.90
8860;DHT22;4466;50.948;4.832;2023-10-13T08:23:41;20.40;99.90
8860;DHT22;4466;50.948;4.832;2023-10-13T08:26:20;20.50;99.90
8860;DHT22;4466;50.948;4.832;2023-10-13T08:29:02;20.50;99.90
8860;DHT22;4466;50.948;4.832;2023-10-13T08:31:50;20.60;99.90
8860;DHT22;4466;50.948;4.832;2023-10-13T08:34:35;20.70;99.90
8860;DHT22;4466;50.948;4.832;2023-10-13T08:37:05;20.70;99.90
8860;DHT22;4466;50.948;4.832;2023-10-13T08:39:57;20.70;99.90
8860;DHT22;4466;50.948;4.832;2023-10-13T08:42:44;20.60;99.90
8860;DHT22;4466;50.948;4.832;2023-10-13T08:45:11;20.60;99.90
8860;DHT22;4466;50.948;4.832;2023-10-13T08:48:08;20.60;99.90
8860;DHT22;4466;50.948;4.832;2023-10-13T08:50:36;20.60;99.90
8860;DHT22;4466;50.948;4.832;2023-10-13T08:53:24;20.50;99.90
8860;DHT22;4466;50.948;4.832;2023-10-13T08:56:00;20.60;99.90
8860;DHT22;4466;50.948;4.832;2023-10-13T08:58:57;20.60;99.90
8860;DHT22;4466;50.948;4.832;2023-10-13T09:01:36;20.70;99.90
8860;DHT22;4466;50.948;4.832;2023-10-13T09:06:59;20.70;99.90
8860;DHT22;4466;50.948;4.832;2023-10-13T09:09:28;20.80;99.90
8860;DHT22;4466;50.948;4.832;2023-10-13T09:12:21;20.80;99.90
8860;DHT22;4466;50.948;4.832;2023-10-13T09:15:09;20.90;99.90
8860;DHT22;4466;50.948;4.832;2023-10-13T09:17:48;20.90;99.90
8860;DHT22;4466;50.948;4.832;2023-10-13T09:20:19;20.90;99.90
8860;DHT22;4466;50.948;4.832;2023-10-13T09:23:14;20.90;99.90
8860;DHT22;4466;50.948;4.832;2023-10-13T09:25:51;21.00;99.90
8860;DHT22;4466;50.948;4.832;2023-10-13T09:28:23;21.10;99.90
8860;DHT22;4466;50.948;4.832;2023-10-13T09:30:52;21.10;99.90
8860;DHT22;4466;50.948;4.832;2023-10-13T09:33:26;21.10;99.90
8860;DHT22;4466;50.948;4.832;2023-10-13T09:36:06;21.10;99.90
8860;DHT22;4466;50.948;4.832;2023-10-13T09:38:39;21.10;99.90
8860;DHT22;4466;50.948;4.832;2023-10-13T09:41:07;21.20;99.90
8860;DHT22;4466;50.948;4.832;2023-10-13T09:43:46;21.30;99.90
8860;DHT22;4466;50.948;4.832;2023-10-13T09:46:19;21.30;99.90
8860;DHT22;4466;50.948;4.832;2023-10-13T09:48:49;21.40;99.90
8860;DHT22;4466;50.948;4.832;2023-10-13T09:51:29;21.40;99.90
8860;DHT22;4466;50.948;4.832;2023-10-13T09:56:29;21.40;99.90
8860;DHT22;4466;50.948;4.832;2023-10-13T09:59:09;21.50;99.90
8860;DHT22;4466;50.948;4.832;2023-10-13T10:01:42;21.60;99.90
8860;DHT22;4466;50.948;4.832;2023-10-13T10:04:18;21.60;99.90
8860;DHT22;4466;50.948;4.832;2023-10-13T10:06:55;21.70;99.90
8860;DHT22;4466;50.948;4.832;2023-10-13T10:09:27;21.70;99.90
8860;DHT22;4466;50.948;4.832;2023-10-13T10:18:19;21.90;99.90
8860;DHT22;4466;50.948;4.832;2023-10-13T10:20:48;22.00;99.90
8860;DHT22;4466;50.948;4.832;2023-10-13T10:23:27;22.00;99.90
8860;DHT22;4466;50.948;4.832;2023-10-13T10:26:14;22.10;99.90
8860;DHT22;4466;50.948;4.832;2023-10-13T10:28:45;22.10;99.90
8860;DHT22;4466;50.948;4.832;2023-10-13T10:31:11;22.10;99.90
8860;DHT22;4466;50.948;4.832;2023-10-13T10:33:45;22.10;99.90
8860;DHT22;4466;50.948;4.832;2023-10-13T10:36:17;22.10;99.90
8860;DHT22;4466;50.948;4.832;2023-10-13T10:38:56;22.10;99.90
8860;DHT22;4466;50.948;4.832;2023-10-13T10:41:27;22.20;99.90
8860;DHT22;4466;50.948;4.832;2023-10-13T10:44:12;22.30;99.90
8860;DHT22;4466;50.948;4.832;2023-10-13T10:46:42;22.40;99.90
8860;DHT22;4466;50.948;4.832;2023-10-13T10:49:18;22.50;99.90
8860;DHT22;4466;50.948;4.832;2023-10-13T10:51:58;22.50;99.90
8860;DHT22;4466;50.948;4.832;2023-10-13T10:54:27;22.40;99.90
8860;DHT22;4466;50.948;4.832;2023-10-13T10:56:57;22.40;99.90
8860;DHT22;4466;50.948;4.832;2023-10-13T10:59:39;22.30;99.90
8860;DHT22;4466;50.948;4.832;2023-10-13T11:02:05;22.40;99.90
8860;DHT22;4466;50.948;4.832;2023-10-13T11:04:32;22.40;99.90
8860;DHT22;4466;50.948;4.832;2023-10-13T11:07:07;22.50;99.90
8860;DHT22;4466;50.948;4.832;2023-10-13T11:09:34;22.50;99.90
8860;DHT22;4466;50.948;4.832;2023-10-13T11:14:32;22.80;99.90
8860;DHT22;4466;50.948;4.832;2023-10-13T11:16:59;22.90;99.90
8860;DHT22;4466;50.948;4.832;2023-10-13T11:19:40;22.90;99.90
8860;DHT22;4466;50.948;4.832;2023-10-13T11:22:16;23.00;99.90
8860;DHT22;4466;50.948;4.832;2023-10-13T11:28:15;23.10;99.90
8860;DHT22;4466;50.948;4.832;2023-10-13T11:33:29;23.30;99.90
8860;DHT22;4466;50.948;4.832;2023-10-13T11:35:55;23.40;99.90
8860;DHT22;4466;50.948;4.832;2023-10-13T11:38:26;23.40;99.90
8860;DHT22;4466;50.948;4.832;2023-10-13T11:41:00;23.40;99.90
8860;DHT22;4466;50.948;4.832;2023-10-13T11:46:13;23.50;99.90
8860;DHT22;4466;50.948;4.832;2023-10-13T11:48:45;23.50;99.90
8860;DHT22;4466;50.948;4.832;2023-10-13T11:51:13;23.60;99.90
8860;DHT22;4466;50.948;4.832;2023-10-13T11:53:57;23.50;99.90
8860;DHT22;4466;50.948;4.832;2023-10-13T11:56:24;23.50;99.90
8860;DHT22;4466;50.948;4.832;2023-10-13T11:58:50;23.50;99.90
8860;DHT22;4466;50.948;4.832;2023-10-13T12:01:17;23.50;99.90
8860;DHT22;4466;50.948;4.832;2023-10-13T12:03:45;23.50;99.90
8860;DHT22;4466;50.948;4.832;2023-10-13T12:06:31;23.50;99.90
8860;DHT22;4466;50.948;4.832;2023-10-13T12:09:10;23.50;99.90
8860;DHT22;4466;50.948;4.832;2023-10-13T12:11:50;23.50;99.90
8860;DHT22;4466;50.948;4.832;2023-10-13T12:14:28;23.50;99.90
8860;DHT22;4466;50.948;4.832;2023-10-13T12:16:55;23.50;99.90
8860;DHT22;4466;50.948;4.832;2023-10-13T12:19:25;23.50;99.90
8860;DHT22;4466;50.948;4.832;2023-10-13T12:21:53;23.50;99.90
8860;DHT22;4466;50.948;4.832;2023-10-13T12:24:30;23.50;99.90
8860;DHT22;4466;50.948;4.832;2023-10-13T12:26:58;23.50;99.90
8860;DHT22;4466;50.948;4.832;2023-10-13T12:29:24;23.40;99.90
8860;DHT22;4466;50.948;4.832;2023-10-13T12:31:57;23.40;99.90
8860;DHT22;4466;50.948;4.832;2023-10-13T12:34:43;23.30;99.90
8860;DHT22;4466;50.948;4.832;2023-10-13T12:37:28;23.30;99.90
8860;DHT22;4466;50.948;4.832;2023-10-13T12:40:12;23.30;99.90
8860;DHT22;4466;50.948;4.832;2023-10-13T12:42:56;23.20;99.90
8860;DHT22;4466;50.948;4.832;2023-10-13T12:45:41;23.20;99.90
8860;DHT22;4466;50.948;4.832;2023-10-13T12:48:26;23.10;99.90
8860;DHT22;4466;50.948;4.832;2023-10-13T12:51:10;23.00;99.90
8860;DHT22;4466;50.948;4.832;2023-10-13T12:53:55;23.00;99.90
8860;DHT22;4466;50.948;4.832;2023-10-13T12:56:32;22.90;99.90
8860;DHT22;4466;50.948;4.832;2023-10-13T12:58:58;22.80;99.90
8860;DHT22;4466;50.948;4.832;2023-10-13T13:01:25;22.90;99.90
8860;DHT22;4466;50.948;4.832;2023-10-13T13:03:58;22.80;99.90
8860;DHT22;4466;50.948;4.832;2023-10-13T13:06:27;22.80;99.90
8860;DHT22;4466;50.948;4.832;2023-10-13T13:09:05;22.80;99.90
8860;DHT22;4466;50.948;4.832;2023-10-13T13:14:09;22.80;99.90
8860;DHT22;4466;50.948;4.832;2023-10-13T13:16:36;22.80;99.90
8860;DHT22;4466;50.948;4.832;2023-10-13T13:19:04;22.80;99.90
8860;DHT22;4466;50.948;4.832;2023-10-13T13:21:39;22.80;99.90
8860;DHT22;4466;50.948;4.832;2023-10-13T13:24:05;22.80;99.90
8860;DHT22;4466;50.948;4.832;2023-10-13T13:26:37;22.80;99.90
8860;DHT22;4466;50.948;4.832;2023-10-13T13:29:06;22.80;99.90
8860;DHT22;4466;50.948;4.832;2023-10-13T13:34:10;22.90;99.90
8860;DHT22;4466;50.948;4.832;2023-10-13T13:36:38;22.90;99.90
8860;DHT22;4466;50.948;4.832;2023-10-13T13:39:04;23.00;99.90
8860;DHT22;4466;50.948;4.832;2023-10-13T13:41:31;23.00;99.90
8860;DHT22;4466;50.948;4.832;2023-10-13T13:43:58;23.00;99.90
8860;DHT22;4466;50.948;4.832;2023-10-13T13:46:38;22.90;99.90
8860;DHT22;4466;50.948;4.832;2023-10-13T13:49:07;22.90;99.90
8860;DHT22;4466;50.948;4.832;2023-10-13T13:51:34;22.80;99.90
8860;DHT22;4466;50.948;4.832;2023-10-13T13:54:03;22.80;99.90
8860;DHT22;4466;50.948;4.832;2023-10-13T13:56:32;22.80;99.90
8860;DHT22;4466;50.948;4.832;2023-10-13T13:59:03;22.80;99.90
8860;DHT22;4466;50.948;4.832;2023-10-13T14:01:42;22.90;99.90
8860;DHT22;4466;50.948;4.832;2023-10-13T14:04:10;22.90;99.90
8860;DHT22;4466;50.948;4.832;2023-10-13T14:06:35;23.00;99.90
8860;DHT22;4466;50.948;4.832;2023-10-13T14:09:03;23.00;99.90
8860;DHT22;4466;50.948;4.832;2023-10-13T14:11:40;23.00;99.90
8860;DHT22;4466;50.948;4.832;2023-10-13T14:14:06;22.90;99.90
8860;DHT22;4466;50.948;4.832;2023-10-13T14:16:51;22.90;99.90
8860;DHT22;4466;50.948;4.832;2023-10-13T14:19:17;22.90;99.90
8860;DHT22;4466;50.948;4.832;2023-10-13T14:21:52;22.90;99.90
8860;DHT22;4466;50.948;4.832;2023-10-13T14:24:19;23.00;99.90
8860;DHT22;4466;50.948;4.832;2023-10-13T14:26:56;23.00;99.90
8860;DHT22;4466;50.948;4.832;2023-10-13T14:29:22;23.00;99.90
8860;DHT22;4466;50.948;4.832;2023-10-13T14:31:52;23.00;99.90
8860;DHT22;4466;50.948;4.832;2023-10-13T14:34:17;23.00;99.90
8860;DHT22;4466;50.948;4.832;2023-10-13T14:36:47;23.00;99.90
8860;DHT22;4466;50.948;4.832;2023-10-13T14:39:14;23.00;99.90
8860;DHT22;4466;50.948;4.832;2023-10-13T14:41:39;22.90;99.90
8860;DHT22;4466;50.948;4.832;2023-10-13T14:44:05;22.90;99.90
8860;DHT22;4466;50.948;4.832;2023-10-13T14:46:32;22.90;99.90
8860;DHT22;4466;50.948;4.832;2023-10-13T14:49:04;22.90;99.90
8860;DHT22;4466;50.948;4.832;2023-10-13T14:51:30;22.80;99.90
8860;DHT22;4466;50.948;4.832;2023-10-13T14:53:57;22.80;99.90
8860;DHT22;4466;50.948;4.832;2023-10-13T14:56:25;22.80;99.90
8860;DHT22;4466;50.948;4.832;2023-10-13T14:58:52;22.70;99.90
8860;DHT22;4466;50.948;4.832;2023-10-13T15:01:20;22.60;99.90
8860;DHT22;4466;50.948;4.832;2023-10-13T15:03:48;22.60;99.90
8860;DHT22;4466;50.948;4.832;2023-10-13T15:06:27;22.50;99.90
8860;DHT22;4466;50.948;4.832;2023-10-13T15:08:58;22.40;99.90
8860;DHT22;4466;50.948;4.832;2023-10-13T15:11:27;22.30;99.90
8860;DHT22;4466;50.948;4.832;2023-10-13T15:14:04;22.20;99.90
8860;DHT22;4466;50.948;4.832;2023-10-13T15:16:33;22.20;99.90
8860;DHT22;4466;50.948;4.832;2023-10-13T15:19:02;22.10;99.90
8860;DHT22;4466;50.948;4.832;2023-10-13T15:21:32;22.00;99.90
8860;DHT22;4466;50.948;4.832;2023-10-13T15:24:01;21.90;99.90
8860;DHT22;4466;50.948;4.832;2023-10-13T15:26:32;21.80;99.90
8860;DHT22;4466;50.948;4.832;2023-10-13T15:29:04;21.70;99.90
8860;DHT22;4466;50.948;4.832;2023-10-13T15:31:34;21.60;99.90
8860;DHT22;4466;50.948;4.832;2023-10-13T15:34:04;21.50;99.90
8860;DHT22;4466;50.948;4.832;2023-10-13T15:36:42;21.40;99.90
8860;DHT22;4466;50.948;4.832;2023-10-13T15:39:11;21.30;99.90
8860;DHT22;4466;50.948;4.832;2023-10-13T15:41:41;21.20;99.90
8860;DHT22;4466;50.948;4.832;2023-10-13T15:44:16;21.10;99.90
8860;DHT22;4466;50.948;4.832;2023-10-13T15:46:41;21.00;99.90
8860;DHT22;4466;50.948;4.832;2023-10-13T15:49:07;20.90;99.90
8860;DHT22;4466;50.948;4.832;2023-10-13T15:51:33;20.90;99.90
8860;DHT22;4466;50.948;4.832;2023-10-13T15:54:03;20.80;99.90
8860;DHT22;4466;50.948;4.832;2023-10-13T15:56:29;20.80;99.90
8860;DHT22;4466;50.948;4.832;2023-10-13T15:59:00;20.70;99.90
8860;DHT22;4466;50.948;4.832;2023-10-13T16:01:27;20.70;99.90
8860;DHT22;4466;50.948;4.832;2023-10-13T16:03:53;20.60;99.90
8860;DHT22;4466;50.948;4.832;2023-10-13T16:06:19;20.60;99.90
8860;DHT22;4466;50.948;4.832;2023-10-13T16:08:45;20.50;99.90
8860;DHT22;4466;50.948;4.832;2023-10-13T16:11:12;20.60;99.90
8860;DHT22;4466;50.948;4.832;2023-10-13T16:13:39;20.60;99.90
8860;DHT22;4466;50.948;4.832;2023-10-13T16:18:41;20.50;99.90
8860;DHT22;4466;50.948;4.832;2023-10-13T16:21:09;20.50;99.90
8860;DHT22;4466;50.948;4.832;2023-10-13T16:23:34;20.50;99.90
8860;DHT22;4466;50.948;4.832;2023-10-13T16:26:00;20.50;99.90
8860;DHT22;4466;50.948;4.832;2023-10-13T16:28:33;20.50;99.90
8860;DHT22;4466;50.948;4.832;2023-10-13T16:31:00;20.50;99.90
8860;DHT22;4466;50.948;4.832;2023-10-13T16:33:25;20.60;99.90
8860;DHT22;4466;50.948;4.832;2023-10-13T16:35:53;20.60;99.90
8860;DHT22;4466;50.948;4.832;2023-10-13T16:38:20;20.50;99.90
8860;DHT22;4466;50.948;4.832;2023-10-13T16:40:55;20.50;99.90
8860;DHT22;4466;50.948;4.832;2023-10-13T16:43:20;20.50;99.90
8860;DHT22;4466;50.948;4.832;2023-10-13T16:45:46;20.50;99.90
8860;DHT22;4466;50.948;4.832;2023-10-13T16:48:12;20.40;99.90
8860;DHT22;4466;50.948;4.832;2023-10-13T16:50:43;20.40;99.90
8860;DHT22;4466;50.948;4.832;2023-10-13T16:53:10;20.40;99.90
8860;DHT22;4466;50.948;4.832;2023-10-13T16:55:36;20.40;99.90
8860;DHT22;4466;50.948;4.832;2023-10-13T16:58:02;20.30;99.90
8860;DHT22;4466;50.948;4.832;2023-10-13T17:00:28;20.30;99.90
8860;DHT22;4466;50.948;4.832;2023-10-13T17:02:54;20.20;99.90
8860;DHT22;4466;50.948;4.832;2023-10-13T17:05:21;20.20;99.90
8860;DHT22;4466;50.948;4.832;2023-10-13T17:07:47;20.20;99.90
8860;DHT22;4466;50.948;4.832;2023-10-13T17:10:14;20.10;99.90
8860;DHT22;4466;50.948;4.832;2023-10-13T17:12:43;20.10;99.90
8860;DHT22;4466;50.948;4.832;2023-10-13T17:15:10;20.10;99.90
8860;DHT22;4466;50.948;4.832;2023-10-13T17:17:51;20.00;99.90
8860;DHT22;4466;50.948;4.832;2023-10-13T17:20:17;20.00;99.90
8860;DHT22;4466;50.948;4.832;2023-10-13T17:22:45;19.90;99.90
8860;DHT22;4466;50.948;4.832;2023-10-13T17:27:50;19.90;99.90
8860;DHT22;4466;50.948;4.832;2023-10-13T17:30:18;19.90;99.90